createdAt,value
2024-04-06T06:45:37.350Z,0
2024-04-06T06:55:14.719Z,0
2024-04-06T07:04:51.722Z,0
2024-04-06T07:14:29.441Z,0
2024-04-06T07:24:06.914Z,0
2024-04-06T07:33:44.541Z,0
2024-04-06T07:43:23.449Z,0
2024-04-06T07:53:07.107Z,0
2024-04-06T08:02:45.948Z,0
2024-04-06T08:12:23.970Z,0
2024-04-06T08:22:02.246Z,0
2024-04-06T08:41:17.538Z,0
2024-04-06T08:50:55.166Z,0
2024-04-06T09:00:32.234Z,0
2024-04-06T09:10:09.772Z,0
2024-04-06T09:19:47.129Z,0
2024-04-06T09:29:24.199Z,0
2024-04-06T09:48:39.123Z,0
2024-04-06T09:58:17.509Z,0
2024-04-06T10:07:54.988Z,0
2024-04-06T10:17:32.602Z,0
2024-04-06T10:27:10.242Z,3
2024-04-06T10:37:23.151Z,5
2024-04-06T10:47:10.624Z,4
2024-04-06T10:56:53.123Z,6
2024-04-06T11:25:56.040Z,5
2024-04-06T11:35:36.238Z,7
2024-04-06T11:45:17.752Z,5
2024-04-06T11:54:59.166Z,5
2024-04-06T12:04:42.786Z,7
2024-04-06T12:14:21.000Z,7
2024-04-06T12:23:53.260Z,3
2024-04-06T12:33:24.816Z,3
2024-04-06T12:53:02.360Z,6
2024-04-06T13:02:43.677Z,6
2024-04-06T13:12:21.560Z,5
2024-04-06T13:21:59.989Z,5
2024-04-06T13:31:39.549Z,5
2024-04-06T13:41:20.800Z,5
2024-04-06T13:50:57.691Z,5
2024-04-06T14:10:12.907Z,5
2024-04-06T14:29:32.116Z,4
2024-04-06T14:39:11.702Z,4
2024-04-06T14:48:45.179Z,1
2024-04-06T14:58:11.362Z,3
2024-04-06T15:08:04.538Z,4
2024-04-06T15:27:17.298Z,2
2024-04-06T15:36:50.326Z,3
2024-04-06T15:46:22.010Z,1
2024-04-06T16:05:18.725Z,0
2024-04-06T16:14:54.150Z,0
2024-04-06T16:24:31.273Z,1
2024-04-06T16:34:07.419Z,0
2024-04-06T16:43:42.827Z,0
2024-04-06T16:53:19.080Z,0
2024-04-06T17:12:31.424Z,0
2024-04-06T17:22:09.675Z,0
2024-04-06T17:31:43.695Z,0
2024-04-06T17:41:19.991Z,0
2024-04-06T17:50:56.430Z,0
2024-04-06T18:00:33.168Z,0
2024-04-06T18:19:47.000Z,0
2024-04-06T18:29:23.735Z,0
2024-04-06T18:39:00.539Z,0
2024-04-06T18:58:13.709Z,0
2024-04-06T19:17:27.942Z,0
2024-04-06T19:27:04.992Z,0
2024-04-06T19:36:42.670Z,0
2024-04-06T19:46:19.679Z,0
2024-04-06T19:55:57.161Z,0
2024-04-06T20:15:12.017Z,0
2024-04-06T20:24:49.277Z,0
2024-04-06T20:34:26.553Z,0
2024-04-06T20:44:04.124Z,0
2024-04-06T20:53:41.146Z,0
2024-04-06T21:03:18.796Z,0
2024-04-06T21:12:56.033Z,0
2024-04-06T21:22:33.472Z,0
2024-04-06T21:32:10.520Z,0
2024-04-06T21:41:46.340Z,0
2024-04-06T21:51:23.476Z,0
2024-04-06T22:10:37.189Z,0
2024-04-06T22:29:50.722Z,0
2024-04-06T22:49:04.779Z,0
2024-04-06T22:58:29.869Z,0
2024-04-06T23:08:06.514Z,0
2024-04-06T23:27:21.020Z,0
2024-04-06T23:46:34.781Z,0
2024-04-06T23:56:11.847Z,0
